Time;durP1;ratioP1;P1;durP2;ratioP2;P2;SDS_P1;SDS_P2;PMS_P1;PMS_P2;Temp;Humidity;BMP_temperature;BMP_pressure;BME280_temperature;BME280_humidity;BME280_pressure;Samples;Min_cycle;Max_cycle;Signal;HPM_P1;HPM_P2
2022/07/21 00:07:21;;;;;;;;;;;;;;;;;;21258976;27;19941;-58
2022/07/21 00:17:23;;;;;;;;;;;;;;;;;;21256206;27;19923;-71
2022/07/21 00:27:25;;;;;;;;;;;;;;;;;;21256600;27;20394;-55
2022/07/21 00:37:27;;;;;;;;;;;;;;;;;;21256020;27;19919;-66
2022/07/21 00:47:29;;;;;;;;;;;;;;;;;;21253315;27;19951;-54
2022/07/21 00:57:30;;;;;;;;;;;;;;;;;;21253974;27;19926;-62
2022/07/21 01:07:32;;;;;;;;;;;;;;;;;;21252285;27;19973;-70
2022/07/21 01:17:34;;;;;;;;;;;;;;;;;;21251836;27;19926;-72
2022/07/21 01:27:38;;;;;;;;;;;;;;;;;;21251346;27;19971;-66
2022/07/21 01:37:42;;;;;;;;;;;;;;;;;;21260686;27;20387;-70
2022/07/21 01:47:48;;;;;;;;;;;;;;;;;;21251636;27;19919;-70
2022/07/21 01:57:51;;;;;;;;;;;;;;;;;;21248241;28;20011;-68
2022/07/21 02:07:57;;;;;;;;;;;;;;;;;;21248074;28;19920;-64
2022/07/21 02:18:00;;;;;;;;;;;;;;;;;;21248943;28;19919;-67
2022/07/21 02:28:03;;;;;;;;;;;;;;;;;;21243246;27;20394;-67
2022/07/21 02:38:07;;;;;;;;;;;;;;;;;;21262846;27;19962;-70
2022/07/21 02:48:11;;;;;;;;;;;;;;;;;;21261624;27;19962;-66
2022/07/21 02:58:13;;;;;;;;;;;;;;;;;;21260932;27;20290;-61
2022/07/21 03:08:15;;;;;;;;;;;;;;;;;;21260616;27;20358;-66
2022/07/21 03:18:19;;;;;;;;;;;;;;;;;;21259194;27;19980;-69
2022/07/21 03:28:21;;;;;;;;;;;;;;;;;;21258632;27;19979;-68
2022/07/21 03:38:24;;;;;;;;;;;;;;;;;;21256495;27;19919;-63
2022/07/21 03:48:26;;;;;;;;;;;;;;;;;;21257258;27;19919;-66
2022/07/21 03:58:27;;;;;;;;;;;;;;;;;;21256584;27;19926;-62
2022/07/21 04:08:35;;;;;;;;;;;;;;;;;;21256258;27;19973;-70
2022/07/21 04:18:46;;;;;;;;;;;;;;;;;;21254514;27;19919;-68
2022/07/21 04:28:49;;;;;;;;;;;;;;;;;;21255192;27;20340;-62
2022/07/21 04:38:52;;;;;;;;;;;;;;;;;;21253285;27;20374;-55
2022/07/21 04:49:03;;;;;;;;;;;;;;;;;;21254113;27;19919;-59
2022/07/21 04:59:05;;;;;;;;;;;;;;;;;;21264394;27;19926;-66
2022/07/21 05:09:09;;;;;;;;;;;;;;;;;;21257436;27;20379;-70
2022/07/21 05:19:30;;;;;;;;;;;;;;;;;;21252305;27;19920;-69
2022/07/21 05:29:51;;;;;;;;;;;;;;;;;;21249606;27;19923;-70
2022/07/21 05:40:12;;;;;;;;;;;;;;;;;;21252249;27;19919;-66
2022/07/21 05:50:20;;;;;;;;;;;;;;;;;;21258885;28;20375;-69
2022/07/21 06:00:23;;;;;;;;;;;;;;;;;;21259314;27;19998;-68
2022/07/21 06:10:28;;;;;;;;;;;;;;;;;;21265015;27;19972;-62
2022/07/21 06:20:29;;;;;;;;;;;;;;;;;;21263860;27;19923;-66
2022/07/21 06:30:32;;;;;;;;;;;;;;;;;;21264665;27;19920;-55
2022/07/21 06:40:35;;;;;;;;;;;;;;;;;;21263105;27;19919;-60
2022/07/21 06:50:37;;;;;;;;;;;;;;;;;;21262890;27;19926;-56
2022/07/21 07:00:40;;;;;;;;;;;;;;;;;;21261497;27;19923;-70
2022/07/21 07:10:42;;;;;;;;;;;;;;;;;;21259651;27;19923;-70
2022/07/21 07:20:44;;;;;;;;;;;;;;;;;;21259927;27;19919;-64
2022/07/21 07:30:48;;;;;;;;;;;;;;;;;;21242194;27;19920;-58
2022/07/21 07:40:50;;;;;;;;;;;;;;;;;;21172013;28;19920;-69
2022/07/21 07:50:52;;;;;;;;;;;;;;;;;;21172913;28;19977;-68
2022/07/21 08:00:55;;;;;;;;;;;;;;;;;;21172519;28;19928;-66
2022/07/21 08:10:57;;;;;;;;;;;;;;;;;;21167644;28;19919;-61
2022/07/21 08:20:59;;;;;;;;;;;;;;;;;;21168902;28;19927;-61
2022/07/21 08:31:02;;;;;;;;;;;;;;;;;;21168953;28;20271;-64
2022/07/21 08:41:07;;;;;;;;;;;;;;;;;;21168961;28;19920;-69
2022/07/21 08:51:09;;;;;;;;;;;;;;;;;;21167604;28;19967;-55
2022/07/21 09:01:11;;;;;;;;;;;;;;;;;;21165934;28;19919;-61
2022/07/21 09:11:13;;;;;;;;;;;;;;;;;;21164213;28;19923;-58
2022/07/21 09:21:15;;;;;;;;;;;;;;;;;;21165480;28;20209;-59
2022/07/21 09:31:17;;;;;;;;;;;;;;;;;;21163465;28;19919;-63
2022/07/21 09:41:19;;;;;;;;;;;;;;;;;;21164651;28;20014;-55
2022/07/21 09:51:21;;;;;;;;;;;;;;;;;;21163024;28;19942;-55
2022/07/21 10:01:24;;;;;;;;;;;;;;;;;;21155258;28;19920;-56
2022/07/21 10:11:26;;;;;;;;;;;;;;;;;;21161641;28;19920;-55
2022/07/21 10:21:28;;;;;;;;;;;;;;;;;;21163666;28;19923;-58
2022/07/21 10:31:30;;;;;;;;;;;;;;;;;;21161501;28;20416;-60
2022/07/21 10:41:32;;;;;;;;;;;;;;;;;;21162465;28;19927;-59
2022/07/21 10:51:34;;;;;;;;;;;;;;;;;;21177043;28;20378;-55
2022/07/21 11:01:38;;;;;;;;;;;;;;;;;;21175597;28;19920;-56
2022/07/21 11:11:40;;;;;;;;;;;;;;;;;;21174067;28;19927;-58
2022/07/21 11:21:42;;;;;;;;;;;;;;;;;;21174951;28;19965;-56
2022/07/21 11:31:44;;;;;;;;;;;;;;;;;;21174489;28;19924;-55
2022/07/21 11:41:45;;;;;;;;;;;;;;;;;;21175069;28;19923;-57
2022/07/21 11:51:48;;;;;;;;;;;;;;;;;;21171934;28;19920;-54
2022/07/21 12:01:51;;;;;;;;;;;;;;;;;;21170223;28;20328;-58
2022/07/21 12:11:53;;;;;;;;;;;;;;;;;;21170072;28;20018;-58
2022/07/21 12:21:55;;;;;;;;;;;;;;;;;;21170224;28;20019;-62
2022/07/21 12:31:57;;;;;;;;;;;;;;;;;;21170647;28;19953;-58
2022/07/21 12:42:00;;;;;;;;;;;;;;;;;;21168245;28;19923;-58
2022/07/21 12:52:02;;;;;;;;;;;;;;;;;;21167492;28;19919;-71
2022/07/21 13:02:03;;;;;;;;;;;;;;;;;;21167700;28;19919;-59
2022/07/21 13:12:05;;;;;;;;;;;;;;;;;;21164979;28;19920;-60
2022/07/21 13:22:08;;;;;;;;;;;;;;;;;;21164746;28;20018;-56
2022/07/21 13:32:15;;;;;;;;;;;;;;;;;;21165959;28;20316;-54
2022/07/21 13:42:19;;;;;;;;;;;;;;;;;;21166530;28;19920;-56
2022/07/21 13:52:21;;;;;;;;;;;;;;;;;;21163964;28;19959;-57
2022/07/21 14:02:24;;;;;;;;;;;;;;;;;;21163840;28;19959;-55
2022/07/21 14:12:26;;;;;;;;;;;;;;;;;;21164780;28;20302;-56
2022/07/21 14:22:28;;;;;;;;;;;;;;;;;;21177262;28;20092;-55
2022/07/21 14:32:31;;;;;;;;;;;;;;;;;;21178604;28;19924;-58
2022/07/21 14:42:33;;;;;;;;;;;;;;;;;;21181734;28;20014;-54
2022/07/21 14:52:36;;;;;;;;;;;;;;;;;;21176215;28;19973;-54
2022/07/21 15:02:38;;;;;;;;;;;;;;;;;;21177949;28;19953;-54
2022/07/21 15:12:40;;;;;;;;;;;;;;;;;;21174565;28;20364;-54
2022/07/21 15:22:41;;;;;;;;;;;;;;;;;;21175152;28;20006;-55
2022/07/21 15:32:44;;;;;;;;;;;;;;;;;;21175114;28;19945;-54
2022/07/21 15:42:45;;;;;;;;;;;;;;;;;;21173270;28;19924;-54
2022/07/21 15:52:47;;;;;;;;;;;;;;;;;;21172753;28;19942;-54
2022/07/21 16:02:49;;;;;;;;;;;;;;;;;;21171318;28;20363;-62
2022/07/21 16:12:51;;;;;;;;;;;;;;;;;;21169196;28;20082;-56
2022/07/21 16:22:53;;;;;;;;;;;;;;;;;;21168588;28;20001;-57
2022/07/21 16:32:55;;;;;;;;;;;;;;;;;;21168083;28;20014;-58
2022/07/21 16:42:57;;;;;;;;;;;;;;;;;;21166463;27;20006;-56
2022/07/21 16:52:59;;;;;;;;;;;;;;;;;;21212017;27;20397;-60
2022/07/21 17:03:01;;;;;;;;;;;;;;;;;;21250781;27;19919;-57
2022/07/21 17:13:02;;;;;;;;;;;;;;;;;;21240901;27;19920;-59
2022/07/21 17:23:05;;;;;;;;;;;;;;;;;;21163276;28;20019;-60
2022/07/21 17:33:07;;;;;;;;;;;;;;;;;;21201346;28;19926;-64
2022/07/21 17:43:10;;;;;;;;;;;;;;;;;;21191898;28;19972;-58
2022/07/21 17:53:11;;;;;;;;;;;;;;;;;;21244584;27;20438;-57
2022/07/21 18:03:13;;;;;;;;;;;;;;;;;;21244554;28;20022;-54
2022/07/21 18:13:15;;;;;;;;;;;;;;;;;;21203703;28;1197307;-55
2022/07/21 18:23:17;;;;;;;;;;;;;;;;;;21247827;28;19919;-55
2022/07/21 18:33:19;;;;;;;;;;;;;;;;;;21177153;28;19927;-61
2022/07/21 18:43:21;;;;;;;;;;;;;;;;;;21160951;28;19964;-60
2022/07/21 18:53:23;;;;;;;;;;;;;;;;;;21160805;28;19927;-62
2022/07/21 19:03:25;;;;;;;;;;;;;;;;;;21186490;27;19934;-57
2022/07/21 19:13:26;;;;;;;;;;;;;;;;;;21196779;27;19920;-62
2022/07/21 19:23:28;;;;;;;;;;;;;;;;;;21252320;27;19926;-71
2022/07/21 19:33:30;;;;;;;;;;;;;;;;;;21258206;27;19919;-60
2022/07/21 19:43:32;;;;;;;;;;;;;;;;;;21201436;27;19981;-58
2022/07/21 19:53:35;;;;;;;;;;;;;;;;;;21171523;28;19927;-65
2022/07/21 20:03:37;;;;;;;;;;;;;;;;;;21195193;27;19920;-58
2022/07/21 20:13:38;;;;;;;;;;;;;;;;;;21213557;27;19919;-62
2022/07/21 20:23:40;;;;;;;;;;;;;;;;;;21210806;27;19923;-56
2022/07/21 20:33:42;;;;;;;;;;;;;;;;;;21253553;27;20055;-61
2022/07/21 20:43:44;;;;;;;;;;;;;;;;;;21257605;27;20414;-59
2022/07/21 20:53:47;;;;;;;;;;;;;;;;;;21253194;27;19964;-55
2022/07/21 21:03:49;;;;;;;;;;;;;;;;;;21251698;27;20371;-56
2022/07/21 21:13:51;;;;;;;;;;;;;;;;;;21250294;27;19934;-55
2022/07/21 21:23:53;;;;;;;;;;;;;;;;;;21251251;27;19942;-61
2022/07/21 21:33:55;;;;;;;;;;;;;;;;;;21249153;27;19923;-59
2022/07/21 21:43:57;;;;;;;;;;;;;;;;;;21249627;27;19927;-67
2022/07/21 21:53:59;;;;;;;;;;;;;;;;;;21249392;27;19958;-63
2022/07/21 22:04:01;;;;;;;;;;;;;;;;;;21250833;28;19923;-65
2022/07/21 22:14:03;;;;;;;;;;;;;;;;;;21250096;28;19930;-57
2022/07/21 22:24:06;;;;;;;;;;;;;;;;;;21249251;28;19926;-66
2022/07/21 22:34:08;;;;;;;;;;;;;;;;;;21248213;28;19964;-65
2022/07/21 22:44:10;;;;;;;;;;;;;;;;;;21260089;27;20039;-59
2022/07/21 22:54:13;;;;;;;;;;;;;;;;;;21262719;27;19919;-56
2022/07/21 23:04:14;;;;;;;;;;;;;;;;;;21261277;27;19920;-69
2022/07/21 23:14:16;;;;;;;;;;;;;;;;;;21261401;27;19972;-58
2022/07/21 23:24:18;;;;;;;;;;;;;;;;;;21262385;27;19926;-64
2022/07/21 23:34:20;;;;;;;;;;;;;;;;;;21258887;27;19923;-63
2022/07/21 23:44:23;;;;;;;;;;;;;;;;;;21259163;27;19919;-63
2022/07/21 23:54:42;;;;;;;;;;;;;;;;;;21257293;27;19934;-64
